createdAt,value
2023-03-21T07:09:51.710Z,96627.63
2023-03-21T07:10:56.495Z,96657.31
2023-03-21T07:11:58.168Z,96663.25
2023-03-21T07:13:00.351Z,96662.00
2023-03-21T07:14:01.822Z,96665.47
2023-03-21T07:15:04.416Z,96660.97
2023-03-21T07:16:06.558Z,96667.91
2023-03-21T07:17:07.959Z,96664.50
2023-03-21T07:18:10.288Z,96660.88
2023-03-21T07:19:11.759Z,96666.63
2023-03-21T07:20:14.094Z,96671.53
2023-03-21T07:21:15.608Z,96659.41
2023-03-21T07:22:17.137Z,96680.34
2023-03-21T07:23:20.502Z,96671.16
2023-03-21T07:24:21.906Z,96672.66
2023-03-21T07:25:23.570Z,96673.25
2023-03-21T07:26:25.012Z,96674.44
2023-03-21T07:27:26.338Z,96670.47
2023-03-21T07:28:28.194Z,96677.44
2023-03-21T07:29:29.694Z,96669.53
2023-03-21T07:30:31.320Z,96671.69
2023-03-21T07:31:33.001Z,96664.97
2023-03-21T07:32:35.161Z,96661.47
2023-03-21T07:33:36.733Z,96661.66
2023-03-21T07:34:38.239Z,96669.09
2023-03-21T07:35:39.909Z,96664.56
2023-03-21T07:36:41.612Z,96668.34
2023-03-21T07:37:43.319Z,96666.03
2023-03-21T07:38:45.865Z,96665.88
2023-03-21T07:39:47.420Z,96666.22
2023-03-21T07:40:49.279Z,96668.25
2023-03-21T07:41:50.724Z,96663.50
2023-03-21T07:42:52.076Z,96652.69
2023-03-21T07:43:53.441Z,96664.63
2023-03-21T07:44:55.022Z,96654.38
2023-03-21T07:45:57.982Z,96658.75
2023-03-21T07:46:59.422Z,96656.13
2023-03-21T07:48:01.729Z,96657.59
2023-03-21T07:49:03.135Z,96660.09
2023-03-21T07:50:05.025Z,96668.63
2023-03-21T07:51:06.825Z,96660.44
2023-03-21T07:52:08.263Z,96667.72
2023-03-21T07:53:10.062Z,96661.94
2023-03-21T07:54:11.463Z,96669.91
2023-03-21T07:55:13.096Z,96669.97
2023-03-21T07:56:15.828Z,96656.63
2023-03-21T07:57:17.735Z,96666.06
2023-03-21T07:58:19.181Z,96661.81
2023-03-21T07:59:20.650Z,96652.22
2023-03-21T08:00:25.253Z,96664.75
2023-03-21T08:01:26.983Z,96666.75
2023-03-21T08:02:28.393Z,96665.44
2023-03-21T08:03:32.740Z,96669.44
2023-03-21T08:04:37.875Z,96676.44
2023-03-21T08:05:40.693Z,96673.97
2023-03-21T08:06:42.524Z,96673.16
2023-03-21T08:07:43.880Z,96677.25
2023-03-21T08:08:45.428Z,96672.94
2023-03-21T08:09:46.932Z,96657.53
2023-03-21T08:10:48.346Z,96672.25
2023-03-21T08:11:49.807Z,96675.31
2023-03-21T08:12:51.238Z,96672.00
2023-03-21T08:13:53.989Z,96670.28
2023-03-21T08:14:55.328Z,96663.09
2023-03-21T08:15:56.872Z,96659.31
2023-03-21T08:16:58.334Z,96656.38
2023-03-21T08:18:00.796Z,96650.06
2023-03-21T08:19:02.274Z,96661.81
2023-03-21T08:20:08.939Z,96662.91
2023-03-21T08:21:10.639Z,96665.13
2023-03-21T08:22:12.004Z,96657.03
2023-03-21T08:23:13.946Z,96655.44
2023-03-21T08:24:16.052Z,96663.31
2023-03-21T08:25:19.966Z,96658.84
2023-03-21T08:26:25.046Z,96649.22
2023-03-21T08:27:27.052Z,96661.41
2023-03-21T08:28:28.548Z,96658.06
2023-03-21T08:29:29.969Z,96649.84
2023-03-21T08:30:31.574Z,96656.34
2023-03-21T08:31:33.039Z,96650.28
2023-03-21T08:32:34.467Z,96645.72
2023-03-21T08:33:36.164Z,96660.66
2023-03-21T08:34:37.579Z,96638.09
2023-03-21T08:35:41.271Z,96657.84
2023-03-21T08:36:42.868Z,96648.97
2023-03-21T08:37:44.475Z,96641.09
2023-03-21T08:38:47.935Z,96645.91
2023-03-21T08:39:49.320Z,96640.13
2023-03-21T08:40:50.827Z,96628.84
2023-03-21T08:41:52.311Z,96645.75
2023-03-21T08:42:53.672Z,96639.41
2023-03-21T08:43:55.072Z,96640.00
2023-03-21T08:44:56.524Z,96646.03
2023-03-21T08:45:58.094Z,96642.22
2023-03-21T08:46:59.470Z,96643.47
2023-03-21T08:48:01.314Z,96627.47
2023-03-21T08:49:03.183Z,96639.69
2023-03-21T08:50:06.781Z,96640.78
2023-03-21T08:51:08.306Z,96641.78
2023-03-21T08:52:09.747Z,96644.19
2023-03-21T08:53:11.207Z,96631.00
2023-03-21T08:54:22.533Z,96643.56
2023-03-21T08:55:24.005Z,96633.16
2023-03-21T08:56:25.554Z,96636.28
2023-03-21T08:57:26.913Z,96639.16
2023-03-21T08:58:28.468Z,96647.78
2023-03-21T08:59:29.858Z,96643.25
2023-03-21T09:00:31.245Z,96646.97
2023-03-21T09:01:33.474Z,96641.69
2023-03-21T09:02:34.901Z,96638.66
2023-03-21T09:03:36.272Z,96639.22
2023-03-21T09:04:38.025Z,96640.56
2023-03-21T09:05:39.981Z,96641.47
2023-03-21T09:06:45.497Z,96635.94
2023-03-21T09:07:47.760Z,96634.69
2023-03-21T09:08:52.662Z,96633.91
2023-03-21T09:10:15.040Z,96625.97
2023-03-21T09:11:15.702Z,96633.91
2023-03-21T09:12:17.042Z,96630.94
2023-03-21T09:13:18.604Z,96633.97
2023-03-21T09:14:21.844Z,96629.53
2023-03-21T09:15:28.762Z,96624.19
2023-03-21T09:16:30.374Z,96630.69
2023-03-21T09:17:32.780Z,96631.38
2023-03-21T09:18:54.178Z,96629.06
2023-03-21T09:19:56.555Z,96636.56
2023-03-21T09:21:00.884Z,96635.16
2023-03-21T09:22:03.721Z,96633.31
2023-03-21T09:23:05.201Z,96629.53
2023-03-21T09:24:07.272Z,96602.03
2023-03-21T09:25:11.356Z,96629.06
2023-03-21T09:26:13.260Z,96636.13
2023-03-21T09:27:17.418Z,96638.47
2023-03-21T09:28:19.602Z,96637.53
2023-03-21T09:29:23.897Z,96638.28
2023-03-21T09:30:26.414Z,96633.88
2023-03-21T09:31:28.633Z,96629.38
2023-03-21T09:32:30.502Z,96626.63
2023-03-21T09:33:32.963Z,96630.78
2023-03-21T09:34:34.335Z,96637.78
2023-03-21T09:35:36.388Z,96638.47
2023-03-21T09:36:38.703Z,96625.06
2023-03-21T09:37:42.323Z,96623.47
2023-03-21T09:38:45.728Z,96636.06
2023-03-21T09:39:47.295Z,96625.72
2023-03-21T09:41:05.015Z,96635.28
2023-03-21T09:42:15.996Z,96637.19
2023-03-21T09:43:50.496Z,96635.53
2023-03-21T09:45:10.478Z,96634.19
2023-03-21T09:46:36.576Z,96626.22
2023-03-21T09:47:49.426Z,96637.81
2023-03-21T09:48:57.944Z,96633.94
2023-03-21T09:50:14.215Z,96622.94
2023-03-21T09:51:18.703Z,96624.88
2023-03-21T09:52:24.498Z,96623.22
2023-03-21T09:53:32.860Z,96636.41
2023-03-21T09:54:42.902Z,96629.78
2023-03-21T09:55:44.873Z,96624.56
2023-03-21T09:56:47.588Z,96626.41
2023-03-21T09:57:57.596Z,96625.09
2023-03-21T09:59:01.186Z,96622.38
2023-03-21T10:00:16.105Z,96625.66
2023-03-21T10:01:27.155Z,96603.78
2023-03-21T10:02:41.566Z,96617.53
2023-03-21T10:03:43.821Z,96619.53
2023-03-21T10:04:46.452Z,96622.94
2023-03-21T10:05:48.425Z,96607.25
2023-03-21T10:07:02.160Z,96618.94
2023-03-21T10:08:13.230Z,96615.56
2023-03-21T10:09:22.754Z,96606.75
2023-03-21T10:10:32.218Z,96607.16
2023-03-21T10:11:51.049Z,96608.66
2023-03-21T10:12:55.158Z,96608.88
2023-03-21T10:14:29.668Z,96607.47
2023-03-21T10:15:31.181Z,96604.00
2023-03-21T10:16:53.626Z,96615.03
2023-03-21T10:18:21.429Z,96613.91
2023-03-21T10:19:23.432Z,96602.28
2023-03-21T10:20:35.992Z,96611.84
2023-03-21T10:21:59.770Z,96597.09
2023-03-21T10:23:08.214Z,96602.59
2023-03-21T10:24:16.354Z,96611.91
2023-03-21T10:25:22.272Z,96608.47
2023-03-21T10:26:27.538Z,96608.25
2023-03-21T10:27:29.207Z,96600.72
2023-03-21T10:28:51.958Z,96608.34
2023-03-21T10:29:57.419Z,96608.66
2023-03-21T10:31:08.003Z,96609.09
2023-03-21T10:32:13.682Z,96601.53
2023-03-21T10:33:23.235Z,96605.19
2023-03-21T10:34:32.854Z,96609.22
2023-03-21T10:35:37.571Z,96597.94
2023-03-21T10:36:39.262Z,96601.38
2023-03-21T10:37:40.891Z,96593.06
2023-03-21T10:38:47.958Z,96601.16
2023-03-21T10:39:52.150Z,96597.03
2023-03-21T10:40:54.152Z,96600.78
2023-03-21T10:41:55.551Z,96601.25
2023-03-21T10:43:15.179Z,96604.66
2023-03-21T10:44:18.191Z,96601.03
2023-03-21T10:45:22.439Z,96598.59
2023-03-21T10:46:27.333Z,96592.34
2023-03-21T10:47:34.735Z,96595.84
2023-03-21T10:48:38.729Z,96598.22
2023-03-21T10:50:05.111Z,96567.31
2023-03-21T10:51:02.149Z,96588.06
2023-03-21T10:52:07.695Z,96598.13
2023-03-21T10:53:20.411Z,96602.06
2023-03-21T10:54:28.377Z,96603.75
2023-03-21T10:55:32.916Z,96594.13
2023-03-21T10:56:40.602Z,96603.25
2023-03-21T10:57:42.172Z,96606.34
2023-03-21T10:58:47.406Z,96602.69
2023-03-21T10:59:59.069Z,96609.25
2023-03-21T11:01:07.858Z,96604.56
2023-03-21T11:02:19.629Z,96603.25
2023-03-21T11:03:31.271Z,96597.38
2023-03-21T11:04:33.455Z,96600.63
2023-03-21T11:05:41.804Z,96594.44
2023-03-21T11:06:50.630Z,96600.63
2023-03-21T11:08:05.044Z,96593.19
2023-03-21T11:09:16.053Z,96593.75
2023-03-21T11:10:32.598Z,96596.38
2023-03-21T11:11:48.926Z,96590.81
2023-03-21T11:12:50.389Z,96598.34
2023-03-21T11:13:58.805Z,96592.44
2023-03-21T11:15:27.224Z,96588.78
2023-03-21T11:16:35.465Z,96588.66
2023-03-21T11:17:37.060Z,96587.31
2023-03-21T11:18:45.376Z,96592.38
2023-03-21T11:20:01.546Z,96586.91
2023-03-21T11:21:08.394Z,96583.06
2023-03-21T11:22:11.755Z,96589.84
2023-03-21T11:23:13.692Z,96582.63
2023-03-21T11:24:18.412Z,96581.69
2023-03-21T11:25:25.173Z,96578.88
2023-03-21T11:26:37.559Z,96580.78
2023-03-21T11:27:49.080Z,96581.78
2023-03-21T11:28:54.228Z,96579.56
2023-03-21T11:29:57.857Z,96584.09
2023-03-21T11:31:04.113Z,96578.38
2023-03-21T11:32:22.810Z,96583.28
2023-03-21T11:33:35.465Z,96586.16
2023-03-21T11:34:54.229Z,96581.00
2023-03-21T11:36:03.492Z,96578.03
2023-03-21T11:37:05.039Z,96577.56
2023-03-21T11:38:23.148Z,96574.94
2023-03-21T11:39:41.182Z,96574.41
2023-03-21T11:40:52.844Z,96577.81
2023-03-21T11:41:54.196Z,96569.97
2023-03-21T11:42:57.843Z,96566.50
2023-03-21T11:44:01.062Z,96572.41
2023-03-21T11:45:13.808Z,96555.66
2023-03-21T11:46:15.569Z,96563.59
2023-03-21T11:47:17.049Z,96565.59
2023-03-21T11:48:18.441Z,96566.84
2023-03-21T11:49:21.119Z,96560.81
2023-03-21T11:50:37.886Z,96551.63
2023-03-21T11:52:13.283Z,96553.63
2023-03-21T11:53:41.562Z,96554.84
2023-03-21T11:55:06.667Z,96554.63
2023-03-21T11:56:23.995Z,96552.38
2023-03-21T11:57:49.307Z,96555.94
2023-03-21T11:59:11.917Z,96555.00
2023-03-21T12:00:25.836Z,96542.28
2023-03-21T12:01:38.108Z,96552.25
2023-03-21T12:03:13.523Z,96546.25
2023-03-21T12:04:36.569Z,96552.59
2023-03-21T12:05:45.956Z,96549.97
2023-03-21T12:06:58.650Z,96546.34
2023-03-21T12:08:02.752Z,96540.88
2023-03-21T12:09:07.089Z,96539.22
2023-03-21T12:10:33.335Z,96535.06
2023-03-21T12:11:50.363Z,96531.13
2023-03-21T12:12:54.727Z,96533.06
2023-03-21T12:14:02.069Z,96536.75
2023-03-21T12:15:17.285Z,96533.25
2023-03-21T12:16:37.742Z,96527.59
2023-03-21T12:17:49.733Z,96522.09
2023-03-21T12:18:59.214Z,96510.09
2023-03-21T12:20:18.883Z,96511.13
2023-03-21T12:21:42.471Z,96519.38
2023-03-21T12:23:01.958Z,96514.69
2023-03-21T12:24:09.307Z,96507.47
2023-03-21T12:25:27.695Z,96518.28
2023-03-21T12:26:32.308Z,96501.53
2023-03-21T12:27:52.052Z,96518.00
2023-03-21T12:29:16.846Z,96509.94
2023-03-21T12:30:48.947Z,96509.53
2023-03-21T12:32:04.829Z,96510.03
2023-03-21T12:33:15.428Z,96513.75
2023-03-21T12:34:52.957Z,96497.50
2023-03-21T12:36:06.233Z,96493.91
2023-03-21T12:37:27.381Z,96508.16
2023-03-21T12:38:38.284Z,96506.50
2023-03-21T12:39:41.186Z,96503.91
2023-03-21T12:40:54.349Z,96498.53
2023-03-21T12:42:14.527Z,96498.75
2023-03-21T12:43:31.101Z,96498.25
2023-03-21T12:44:38.868Z,96495.44
2023-03-21T12:45:47.365Z,96497.72
2023-03-21T12:46:55.507Z,96493.00
2023-03-21T12:48:21.608Z,96497.72
2023-03-21T12:49:32.472Z,96489.59
2023-03-21T12:50:37.448Z,96485.88
2023-03-21T12:51:44.562Z,96496.28
2023-03-21T12:52:50.346Z,96480.53
2023-03-21T12:54:10.191Z,96492.06
2023-03-21T12:55:18.263Z,96485.25
2023-03-21T12:56:31.043Z,96485.09
2023-03-21T12:57:44.656Z,96484.97
2023-03-21T12:59:18.603Z,96486.19
2023-03-21T13:00:27.216Z,96482.94
2023-03-21T13:01:29.890Z,96475.03
2023-03-21T13:02:36.591Z,96477.72
2023-03-21T13:03:45.450Z,96472.16
2023-03-21T13:05:04.500Z,96471.13
2023-03-21T13:06:07.272Z,96477.91
2023-03-21T13:07:13.658Z,96462.28
2023-03-21T13:08:28.240Z,96480.56
2023-03-21T13:09:41.025Z,96477.69
2023-03-21T13:10:44.647Z,96481.41
2023-03-21T13:11:48.332Z,96480.56
2023-03-21T13:13:09.812Z,96474.09
2023-03-21T13:14:33.675Z,96486.09
2023-03-21T13:15:53.626Z,96475.63
2023-03-21T13:17:06.226Z,96467.22
2023-03-21T13:18:30.640Z,96472.00
2023-03-21T13:19:54.266Z,96476.59
2023-03-21T13:21:04.825Z,96470.72
2023-03-21T13:22:28.414Z,96470.81
2023-03-21T13:23:38.707Z,96468.06
2023-03-21T13:24:48.479Z,96465.78
2023-03-21T13:25:54.482Z,96466.03
2023-03-21T13:27:02.564Z,96469.50
2023-03-21T13:28:05.787Z,96464.66
2023-03-21T13:29:25.582Z,96468.84
2023-03-21T13:30:29.628Z,96467.91
2023-03-21T13:31:48.803Z,96471.38
2023-03-21T13:33:13.040Z,96469.78
2023-03-21T13:34:16.132Z,96477.13
2023-03-21T13:35:33.120Z,96475.00
2023-03-21T13:36:37.902Z,96473.72
2023-03-21T13:37:42.244Z,96467.94
2023-03-21T13:38:51.093Z,96471.78
2023-03-21T13:39:52.586Z,96466.16
2023-03-21T13:41:05.902Z,96454.47
2023-03-21T13:42:20.391Z,96447.94
2023-03-21T13:43:44.302Z,96450.44
2023-03-21T13:44:53.663Z,96452.22
2023-03-21T13:45:55.311Z,96445.50
2023-03-21T13:47:05.407Z,96435.34
2023-03-21T13:48:27.461Z,96436.00
2023-03-21T13:49:35.566Z,96443.50
2023-03-21T13:50:52.101Z,96438.28
2023-03-21T13:51:56.883Z,96434.06
2023-03-21T13:53:14.074Z,96437.31
2023-03-21T13:54:15.627Z,96430.00
2023-03-21T13:55:20.300Z,96432.50
2023-03-21T13:56:23.757Z,96426.97
2023-03-21T13:57:29.342Z,96429.75
2023-03-21T13:58:39.718Z,96429.13
2023-03-21T13:59:43.782Z,96424.66
2023-03-21T14:01:24.003Z,96429.81
2023-03-21T14:02:33.213Z,96424.97
2023-03-21T14:03:35.390Z,96418.03
2023-03-21T14:04:42.816Z,96431.81
2023-03-21T14:05:56.524Z,96422.81
2023-03-21T14:07:11.411Z,96434.38
2023-03-21T14:08:27.841Z,96426.44
2023-03-21T14:09:45.668Z,96410.50
2023-03-21T14:10:52.288Z,96426.47
2023-03-21T14:11:58.722Z,96422.50
2023-03-21T14:13:06.505Z,96427.59
2023-03-21T14:14:09.468Z,96426.97
2023-03-21T14:15:20.247Z,96413.66
2023-03-21T14:16:25.859Z,96423.22
2023-03-21T14:17:28.894Z,96427.06
2023-03-21T14:18:52.813Z,96419.03
2023-03-21T14:20:16.313Z,96432.38
2023-03-21T14:21:30.265Z,96431.69
2023-03-21T14:22:31.680Z,96427.22
2023-03-21T14:23:33.058Z,96432.53
2023-03-21T14:24:34.580Z,96430.72
2023-03-21T14:25:47.149Z,96432.31
2023-03-21T14:26:52.433Z,96434.50
2023-03-21T14:27:57.126Z,96419.44
2023-03-21T14:28:59.250Z,96427.59
2023-03-21T14:30:03.285Z,96423.06
2023-03-21T14:31:05.664Z,96427.44
2023-03-21T14:32:07.728Z,96433.91
2023-03-21T14:33:20.246Z,96425.09
2023-03-21T14:34:22.916Z,96431.97
2023-03-21T14:35:31.196Z,96424.16
2023-03-21T14:36:38.910Z,96430.94
2023-03-21T14:37:46.616Z,96428.59
2023-03-21T14:39:11.822Z,96394.63
2023-03-21T14:40:27.329Z,96430.31
2023-03-21T14:41:31.389Z,96428.09
2023-03-21T14:42:37.500Z,96408.56
2023-03-21T14:43:39.039Z,96424.84
2023-03-21T14:44:58.114Z,96425.41
2023-03-21T14:46:00.735Z,96425.81
2023-03-21T14:47:18.739Z,96412.97
2023-03-21T14:48:21.351Z,96421.56
2023-03-21T14:49:31.490Z,96419.28
2023-03-21T14:50:49.099Z,96420.88
2023-03-21T14:51:53.091Z,96392.13
2023-03-21T14:52:54.697Z,96418.78
2023-03-21T14:53:57.365Z,96423.59
2023-03-21T14:55:00.437Z,96421.63
2023-03-21T14:56:08.122Z,96419.25
2023-03-21T14:57:13.593Z,96417.50
2023-03-21T14:58:16.880Z,96410.28
2023-03-21T14:59:22.469Z,96407.19
2023-03-21T15:00:29.469Z,96411.50
2023-03-21T15:01:34.827Z,96409.56
2023-03-21T15:02:39.883Z,96409.19
2023-03-21T15:03:45.696Z,96414.47
2023-03-21T15:04:54.135Z,96407.28
2023-03-21T15:05:56.754Z,96414.00
2023-03-21T15:07:04.835Z,96396.13
2023-03-21T15:08:12.608Z,96409.34
2023-03-21T15:09:17.994Z,96410.88
2023-03-21T15:10:19.496Z,96413.06
2023-03-21T15:11:29.857Z,96408.75
2023-03-21T15:12:32.487Z,96400.09
2023-03-21T15:13:46.072Z,96403.59
2023-03-21T15:14:47.789Z,96408.59
2023-03-21T15:15:49.719Z,96381.97
2023-03-21T15:16:51.780Z,96409.47
2023-03-21T15:17:55.799Z,96403.53
2023-03-21T15:18:58.045Z,96401.63
2023-03-21T15:19:59.529Z,96405.31
2023-03-21T15:21:10.252Z,96406.69
2023-03-21T15:22:35.099Z,96405.44
2023-03-21T15:23:43.777Z,96412.84
2023-03-21T15:24:50.950Z,96413.06
2023-03-21T15:25:53.117Z,96406.56
2023-03-21T15:27:00.667Z,96410.63
2023-03-21T15:28:04.336Z,96402.16
2023-03-21T15:29:07.467Z,96392.25
2023-03-21T15:30:22.179Z,96413.00
2023-03-21T15:31:29.561Z,96405.00
2023-03-21T15:32:36.334Z,96403.66
2023-03-21T15:33:38.146Z,96386.63
2023-03-21T15:34:39.820Z,96408.84
2023-03-21T15:35:46.132Z,96398.75
2023-03-21T15:36:50.808Z,96406.84
2023-03-21T15:37:56.051Z,96407.72
2023-03-21T15:39:01.591Z,96411.84
2023-03-21T15:40:21.889Z,96410.56
2023-03-21T15:41:23.326Z,96409.31
2023-03-21T15:42:29.340Z,96406.66
2023-03-21T15:43:39.684Z,96395.28
2023-03-21T15:44:49.553Z,96398.84
2023-03-21T15:45:55.094Z,96400.00
2023-03-21T15:46:57.488Z,96398.25
2023-03-21T15:48:09.308Z,96401.53
2023-03-21T15:49:14.582Z,96400.47
2023-03-21T15:50:35.589Z,96398.88
2023-03-21T15:51:37.199Z,96402.03
2023-03-21T15:52:38.908Z,96400.34
2023-03-21T15:53:43.030Z,96404.25
2023-03-21T15:54:56.838Z,96402.66
2023-03-21T15:56:01.873Z,96404.34
2023-03-21T15:57:19.731Z,96396.69
2023-03-21T15:58:24.423Z,96404.16
2023-03-21T15:59:30.364Z,96404.97
2023-03-21T16:00:43.833Z,96398.13
2023-03-21T16:01:49.740Z,96397.09
